Manchester, NH

12:17 PM EST on February 23, 2019 (GMT -0500)
Birchwood | | Change Station
Active Advisory: Winter Weather Advisory

Elev 425 ft 43.00 °N, 71.44 °W | Updated 3 seconds ago

Partly Cloudy
Partly Cloudy
37.8 °F
Feels Like 38 °F
N
0.4
Wind Variable Wind from SSW
Gusts 2.5 mph

Today
High -- | Low -- °F
--% Chance of Precip.
Yesterday
High -- | Low -- °F
Precip. -- in
Pressure 30.49 in
Visibility 10.0 miles
Clouds Overcast 20000 ft
Windchill 38 °F
Dew Point 11 °F
Humidity 33%
Rainfall 0.00 in
Snow Depth Not available.
6:31 AM 5:27 PM
Waning Gibbous, 78% visible
METAR KMHT 231653Z 00000KT 10SM OVC200 01/M09 A3043 RMK AO2 SLP324 T00111094
Pressure 30.49 in
Visibility 10.0 miles
Clouds Overcast 20000 ft
Windchill 38 °F
Dew Point 11 °F
Humidity 33%
Rainfall 0.00 in
Snow Depth Not available.
6:31 AM 5:27 PM
Waning Gibbous, 78% visible
METAR KMHT 231653Z 00000KT 10SM OVC200 01/M09 A3043 RMK AO2 SLP324 T00111094

Get Your Daily Forecast Email!

Thanks for signing up!

Be on the lookout for a verification email in your inbox.

You'll start receiving severe weather alerts in your inbox..

×

10-Day Weather Forecast

Almanac

Astronomy

Feb. 23, 2019 Rise Set
Actual Time
Civil Twilight
Nautical Twilight
Astronomical Twilight
Moon
Length of Visible Light
Length of Day
Tomorrow will be .
, % of the Moon is Illuminated

Today's Extremes

State Highs State Lows

Community

WunderPhotos

Category 6

Welcome to Category 6. This is the collective home for Weather Underground's featured writeups by Dr. Jeff Masters (right), Bob Henson (left), Chris Burt, and other regular contributors.

Nearby

Air Quality

  Air Quality AQ Index Pollutant
Not available.

Snow Depth

Station Depth Elevation

Earthquake Activity

City Distance Mag. Time & Date
Minimum magnitude displayed is 2.5.

Coastal Water Temperatures

Place Temperature

Stations

Nearby Weather Stations

Station Location Temp. Windchill Dew Point Humidity Wind Precip. Elev Updated Type
                   

Watches & Warnings

Winter Weather Advisory
Issued: 9:44 AM EST Feb. 23, 2019 – National Weather Service

... Winter Weather Advisory remains in effect from 3 am to 7 PM
EST Sunday...

* what... mixed precipitation expected. Total snow accumulations
of 1 to 4 inches and ice accumulations of around one tenth of
an inch expected.

* Where... central and southern New Hampshire and southwest Maine
away from the coast.

* When... from 3 am to 7 PM EST Sunday.

* Additional details... snow and freezing rain will cause Road
conditions to be come slippery making travel more difficult.

Precautionary/preparedness actions...

A Winter Weather Advisory means that periods of snow, sleet or
freezing rain will cause travel difficulties. Expect slippery
roads and limited visibilities, and use caution while driving.

For a more precise forecast for your specific location... go to
www.Weather.Gov/gray.